createdAt,value
2019-06-08T00:02:43.537Z,96348.05
2019-06-08T00:05:25.984Z,96360.95
2019-06-08T00:08:16.837Z,96364.48
2019-06-08T00:11:01.245Z,96371.36
2019-06-08T00:19:40.962Z,96374.30
2019-06-08T00:22:30.655Z,96375.31
2019-06-08T00:25:13.807Z,96384.33
2019-06-08T00:28:03.573Z,96388.61
2019-06-08T00:30:46.358Z,96400.78
2019-06-08T00:33:36.051Z,96390.41
2019-06-08T00:36:18.804Z,96400.56
2019-06-08T00:42:11.879Z,96405.19
2019-06-08T00:45:01.735Z,96389.64
2019-06-08T00:47:48.025Z,96402.91
2019-06-08T00:50:35.440Z,96416.95
2019-06-08T00:53:17.372Z,96423.44
2019-06-08T00:56:07.117Z,96430.86
2019-06-08T00:58:49.681Z,96415.31
2019-06-08T01:01:39.374Z,96437.50
2019-06-08T01:04:29.219Z,96421.36
2019-06-08T01:07:11.955Z,96449.04
2019-06-08T01:13:05.530Z,96456.66
2019-06-08T01:15:47.934Z,96463.22
2019-06-08T01:18:38.029Z,96459.67
2019-06-08T01:21:27.849Z,96433.87
2019-06-08T01:24:17.564Z,96459.45
2019-06-08T01:27:07.300Z,96463.17
2019-06-08T01:29:49.196Z,96482.55
2019-06-08T01:32:38.949Z,96483.38
2019-06-08T01:35:21.108Z,96472.61
2019-06-08T01:38:04.018Z,96481.08
2019-06-08T01:40:53.857Z,96487.49
2019-06-08T01:43:43.620Z,96484.58
2019-06-08T01:46:25.915Z,96492.63
2019-06-08T01:49:15.673Z,96492.27
2019-06-08T01:52:05.478Z,96493.22
2019-06-08T01:54:55.273Z,96493.48
2019-06-08T01:57:45.134Z,96492.55
2019-06-08T02:00:55.374Z,96502.89
2019-06-08T02:03:37.774Z,96494.27
2019-06-08T02:06:28.446Z,96497.02
2019-06-08T02:09:11.929Z,96493.09
2019-06-08T02:12:01.671Z,96513.70
2019-06-08T02:14:44.415Z,96522.16
2019-06-08T02:17:35.483Z,96523.75
2019-06-08T02:20:18.514Z,96521.28
2019-06-08T02:26:02.900Z,96521.66
2019-06-08T02:28:52.754Z,96513.72
2019-06-08T02:34:25.741Z,96511.70
2019-06-08T02:37:15.477Z,96512.48
2019-06-08T02:39:58.264Z,96523.20
2019-06-08T02:42:48.026Z,96515.66
2019-06-08T02:45:31.862Z,96529.73
2019-06-08T02:48:21.573Z,96542.25
2019-06-08T02:51:11.444Z,96535.59
2019-06-08T02:53:53.748Z,96523.92
2019-06-08T02:56:36.772Z,96545.63
2019-06-08T03:02:43.512Z,96519.25
2019-06-08T03:05:53.884Z,96547.19
2019-06-08T03:08:44.149Z,96545.04
2019-06-08T03:14:48.230Z,96523.84
2019-06-08T03:17:39.903Z,96547.81
2019-06-08T03:20:26.155Z,96554.30
2019-06-08T03:23:08.295Z,96529.73
2019-06-08T03:25:58.103Z,96560.36
2019-06-08T03:28:47.924Z,96561.52
2019-06-08T03:31:43.457Z,96565.84
2019-06-08T03:34:23.645Z,96569.58
2019-06-08T03:37:05.848Z,96578.42
2019-06-08T03:39:55.578Z,96577.06
2019-06-08T03:42:45.272Z,96564.20
2019-06-08T03:45:28.091Z,96586.66
2019-06-08T03:48:17.846Z,96594.87
2019-06-08T03:50:59.986Z,96596.24
2019-06-08T03:53:49.743Z,96588.60
2019-06-08T03:56:32.427Z,96596.45
2019-06-08T03:59:22.121Z,96594.30
2019-06-08T04:02:05.794Z,96594.50
2019-06-08T04:04:55.493Z,96596.86
2019-06-08T04:07:39.673Z,96605.67
2019-06-08T04:10:29.610Z,96581.83
2019-06-08T04:13:12.353Z,96602.72
2019-06-08T04:16:02.099Z,96600.56
2019-06-08T04:18:46.953Z,96604.13
2019-06-08T04:21:37.877Z,96607.07
2019-06-08T04:24:21.453Z,96607.07
2019-06-08T04:27:11.193Z,96615.26
2019-06-08T04:29:53.416Z,96600.25
2019-06-08T04:32:44.924Z,96616.63
2019-06-08T04:35:29.603Z,96617.62
2019-06-08T04:38:00.265Z,96622.31
2019-06-08T04:40:50.083Z,96621.35
2019-06-08T04:46:33.773Z,96629.36
2019-06-08T04:49:23.513Z,96628.20
2019-06-08T04:52:07.569Z,96627.20
2019-06-08T04:54:57.301Z,96629.77
2019-06-08T04:57:41.367Z,96644.84
2019-06-08T05:00:31.538Z,96638.58
2019-06-08T05:03:14.568Z,96630.16
2019-06-08T05:06:04.466Z,96625.84
2019-06-08T05:08:47.425Z,96648.14
2019-06-08T05:11:56.345Z,96646.01
2019-06-08T05:14:39.107Z,96649.33
2019-06-08T05:17:28.868Z,96648.92
2019-06-08T05:20:11.945Z,96650.09
2019-06-08T05:25:56.036Z,96660.03
2019-06-08T05:28:45.810Z,96664.09
2019-06-08T05:31:35.607Z,96676.06
2019-06-08T05:34:25.378Z,96680.34
2019-06-08T05:37:07.939Z,96676.03
2019-06-08T05:39:57.646Z,96688.98
2019-06-08T05:42:42.018Z,96691.84
2019-06-08T05:45:31.686Z,96695.64
2019-06-08T05:48:21.466Z,96700.69
2019-06-08T05:51:24.510Z,96700.09
2019-06-08T05:54:07.469Z,96711.84
2019-06-08T05:56:57.182Z,96713.96
2019-06-08T05:59:40.056Z,96710.84
2019-06-08T06:02:31.826Z,96710.91
2019-06-08T06:05:14.430Z,96697.91
2019-06-08T06:08:16.067Z,96717.05
2019-06-08T06:10:48.948Z,96728.72
2019-06-08T06:13:38.725Z,96733.88
2019-06-08T06:16:20.606Z,96740.38
2019-06-08T06:19:10.330Z,96740.23
2019-06-08T06:21:52.656Z,96728.14
2019-06-08T06:24:43.721Z,96753.25
2019-06-08T06:27:27.617Z,96754.13
2019-06-08T06:33:14.531Z,96758.23
2019-06-08T06:36:23.371Z,96741.77
2019-06-08T06:39:06.521Z,96767.39
2019-06-08T06:42:15.483Z,96776.56
2019-06-08T06:45:06.067Z,96785.52
2019-06-08T06:47:55.835Z,96782.78
2019-06-08T06:50:46.288Z,96783.02
2019-06-08T06:53:36.996Z,96765.59
2019-06-08T06:56:18.937Z,96766.94
2019-06-08T06:59:08.674Z,96781.28
2019-06-08T07:01:54.120Z,96777.45
2019-06-08T07:04:43.727Z,96777.05
2019-06-08T07:07:26.819Z,96777.05
2019-06-08T07:10:16.647Z,96772.80
2019-06-08T07:12:58.663Z,96779.17
2019-06-08T07:15:51.534Z,96785.03
2019-06-08T07:18:32.741Z,96781.12
2019-06-08T07:21:22.548Z,96785.91
2019-06-08T07:24:04.829Z,96784.06
2019-06-08T07:26:54.656Z,96787.77
2019-06-08T07:29:37.553Z,96791.50
2019-06-08T07:32:27.379Z,96789.17
2019-06-08T07:35:09.795Z,96777.04
2019-06-08T07:37:59.906Z,96765.12
2019-06-08T07:40:50.028Z,96779.81
2019-06-08T07:43:39.829Z,96778.77
2019-06-08T07:46:49.321Z,96776.83
2019-06-08T07:49:33.780Z,96770.13
2019-06-08T07:52:23.545Z,96779.69
2019-06-08T07:55:32.633Z,96771.66
2019-06-08T07:58:14.704Z,96774.05
2019-06-08T08:01:08.131Z,96764.23
2019-06-08T08:03:52.173Z,96769.68
2019-06-08T08:09:45.630Z,96756.25
2019-06-08T08:12:30.146Z,96765.39
2019-06-08T08:15:20.555Z,96766.17
2019-06-08T08:18:10.833Z,96759.33
2019-06-08T08:20:55.840Z,96756.95
2019-06-08T08:23:47.890Z,96749.66
2019-06-08T08:26:34.356Z,96756.50
2019-06-08T08:29:23.012Z,96759.33
2019-06-08T08:32:12.980Z,96766.63
2019-06-08T08:35:03.326Z,96767.66
2019-06-08T08:37:56.321Z,96767.41
2019-06-08T08:40:38.804Z,96765.98
2019-06-08T08:43:29.542Z,96767.36
2019-06-08T08:46:39.016Z,96768.31
2019-06-08T08:49:47.991Z,96763.38
2019-06-08T08:52:36.889Z,96759.16
2019-06-08T08:55:22.943Z,96764.27
2019-06-08T08:58:13.386Z,96769.55
2019-06-08T09:01:22.861Z,96768.95
2019-06-08T09:04:31.716Z,96764.88
2019-06-08T09:07:15.287Z,96768.63
2019-06-08T09:10:00.547Z,96773.62
2019-06-08T09:12:49.443Z,96774.73
2019-06-08T09:18:33.001Z,96771.72
2019-06-08T09:21:23.325Z,96764.46
2019-06-08T09:24:13.143Z,96764.81
2019-06-08T09:27:04.317Z,96761.31
2019-06-08T09:29:48.236Z,96747.34
2019-06-08T09:32:38.626Z,96763.02
2019-06-08T09:35:28.914Z,96763.67
2019-06-08T09:38:03.250Z,96742.60
2019-06-08T09:40:33.317Z,96766.73
2019-06-08T09:43:10.375Z,96752.94
2019-06-08T09:45:58.745Z,96768.59
2019-06-08T09:48:40.943Z,96768.01
2019-06-08T09:51:31.253Z,96771.11
2019-06-08T09:54:14.185Z,96763.50
2019-06-08T09:57:06.657Z,96766.12
2019-06-08T09:59:49.689Z,96757.52
2019-06-08T10:02:39.979Z,96766.43
2019-06-08T10:05:24.291Z,96738.03
2019-06-08T10:08:14.856Z,96762.63
2019-06-08T10:11:01.410Z,96757.86
2019-06-08T10:13:50.200Z,96758.02
2019-06-08T10:16:33.416Z,96756.61
2019-06-08T10:19:23.710Z,96747.09
2019-06-08T10:22:08.633Z,96741.68
2019-06-08T10:25:02.825Z,96757.95
2019-06-08T10:27:44.239Z,96753.71
2019-06-08T10:30:34.552Z,96758.78
2019-06-08T10:33:18.460Z,96736.14
2019-06-08T10:36:12.198Z,96751.14
2019-06-08T10:38:56.704Z,96755.66
2019-06-08T10:41:51.286Z,96752.74
2019-06-08T10:44:32.694Z,96753.13
2019-06-08T10:47:23.037Z,96755.48
2019-06-08T10:50:14.581Z,96726.49
2019-06-08T10:53:03.648Z,96751.60
2019-06-08T10:55:48.056Z,96743.03
2019-06-08T10:58:37.259Z,96748.48
2019-06-08T11:01:20.340Z,96731.53
2019-06-08T11:04:10.582Z,96739.58
2019-06-08T11:06:53.840Z,96738.75
2019-06-08T11:09:44.120Z,96736.19
2019-06-08T11:12:31.119Z,96726.83
2019-06-08T11:15:21.418Z,96731.10
2019-06-08T11:18:13.460Z,96730.92
2019-06-08T11:20:58.451Z,96735.78
2019-06-08T11:24:04.715Z,96730.91
2019-06-08T11:26:33.249Z,96715.63
2019-06-08T11:29:23.734Z,96726.52
2019-06-08T11:32:10.934Z,96719.58
2019-06-08T11:34:59.887Z,96723.20
2019-06-08T11:37:43.709Z,96720.63
2019-06-08T11:40:33.996Z,96718.73
2019-06-08T11:43:18.302Z,96704.39
2019-06-08T11:46:08.733Z,96714.50
2019-06-08T11:48:51.587Z,96694.42
2019-06-08T11:51:41.863Z,96710.68
2019-06-08T11:54:34.341Z,96695.23
2019-06-08T11:57:17.643Z,96690.34
2019-06-08T12:00:09.262Z,96706.38
2019-06-08T12:02:53.576Z,96708.64
2019-06-08T12:05:37.123Z,96705.02
2019-06-08T12:08:28.450Z,96712.79
2019-06-08T12:11:18.070Z,96715.00
2019-06-08T12:14:04.806Z,96708.58
2019-06-08T12:16:49.462Z,96708.89
2019-06-08T12:19:39.777Z,96706.10
2019-06-08T12:22:23.142Z,96708.50
2019-06-08T12:25:14.191Z,96703.74
2019-06-08T12:27:58.629Z,96677.24
2019-06-08T12:30:49.014Z,96700.80
2019-06-08T12:33:33.320Z,96669.36
2019-06-08T12:36:23.692Z,96691.98
2019-06-08T12:39:14.266Z,96693.66
2019-06-08T12:42:00.659Z,96696.14
2019-06-08T12:44:50.938Z,96684.22
2019-06-08T12:47:41.235Z,96670.45
2019-06-08T12:50:28.176Z,96663.64
2019-06-08T12:53:15.976Z,96673.53
2019-06-08T12:56:24.200Z,96669.20
2019-06-08T12:59:18.542Z,96688.88
2019-06-08T13:02:00.222Z,96682.69
2019-06-08T13:04:50.590Z,96690.41
2019-06-08T13:07:40.930Z,96686.87
2019-06-08T13:13:37.615Z,96686.70
2019-06-08T13:16:24.210Z,96689.94
2019-06-08T13:19:05.017Z,96690.56
2019-06-08T13:21:55.408Z,96687.70
2019-06-08T13:24:47.776Z,96669.08
2019-06-08T13:27:38.175Z,96676.32
2019-06-08T13:30:25.864Z,96656.50
2019-06-08T13:33:14.032Z,96679.05
2019-06-08T13:35:58.153Z,96678.65
2019-06-08T13:38:48.457Z,96676.91
2019-06-08T13:41:31.020Z,96665.48
2019-06-08T13:44:21.940Z,96669.81
2019-06-08T13:47:07.633Z,96668.09
2019-06-08T13:50:19.238Z,96666.22
2019-06-08T13:53:01.217Z,96664.39
2019-06-08T13:55:56.344Z,96664.09
2019-06-08T13:58:38.101Z,96664.84
2019-06-08T14:01:30.830Z,96669.78
2019-06-08T14:04:12.311Z,96670.83
2019-06-08T14:07:02.611Z,96668.58
2019-06-08T14:09:47.814Z,96672.92
2019-06-08T14:12:38.451Z,96670.27
2019-06-08T14:15:23.359Z,96670.83
2019-06-08T14:18:13.660Z,96671.16
2019-06-08T14:20:58.714Z,96662.97
2019-06-08T14:23:48.829Z,96663.95
2019-06-08T14:26:32.196Z,96658.78
2019-06-08T14:29:23.272Z,96648.16
2019-06-08T14:32:07.860Z,96636.44
2019-06-08T14:34:58.459Z,96643.09
2019-06-08T14:37:48.807Z,96647.75
2019-06-08T14:40:39.209Z,96641.77
2019-06-08T14:43:31.280Z,96637.32
2019-06-08T14:46:14.240Z,96638.09
2019-06-08T14:49:04.608Z,96636.08
2019-06-08T14:51:54.962Z,96635.48
2019-06-08T14:54:45.446Z,96609.61
2019-06-08T14:57:37.444Z,96624.49
2019-06-08T15:00:22.992Z,96613.95
2019-06-08T15:03:13.400Z,96623.38
2019-06-08T15:06:03.722Z,96618.42
2019-06-08T15:08:54.192Z,96622.89
2019-06-08T15:11:44.714Z,96622.30
2019-06-08T15:14:38.343Z,96625.70
2019-06-08T15:17:28.945Z,96613.98
2019-06-08T15:20:11.815Z,96610.24
2019-06-08T15:23:02.175Z,96614.40
2019-06-08T15:25:52.517Z,96591.80
2019-06-08T15:28:42.881Z,96616.70
2019-06-08T15:31:33.169Z,96608.00
2019-06-08T15:34:23.472Z,96614.83
2019-06-08T15:37:09.183Z,96593.30
2019-06-08T15:39:58.727Z,96606.78
2019-06-08T15:42:41.840Z,96601.33
2019-06-08T15:45:34.116Z,96603.69
2019-06-08T15:48:20.219Z,96603.70
2019-06-08T15:51:09.344Z,96597.98
2019-06-08T15:53:52.624Z,96585.12
2019-06-08T15:56:49.510Z,96582.47
2019-06-08T15:59:34.163Z,96603.42
2019-06-08T16:02:39.449Z,96598.16
2019-06-08T16:05:23.444Z,96589.30
2019-06-08T16:08:13.880Z,96590.38
2019-06-08T16:11:04.236Z,96577.03
2019-06-08T16:13:54.618Z,96596.30
2019-06-08T16:19:53.113Z,96589.71
2019-06-08T16:22:35.984Z,96586.80
2019-06-08T16:25:27.555Z,96558.33
2019-06-08T16:28:10.885Z,96558.35
2019-06-08T16:31:01.348Z,96585.52
2019-06-08T16:33:51.685Z,96584.63
2019-06-08T16:36:54.819Z,96576.44
2019-06-08T16:39:37.363Z,96574.91
2019-06-08T16:42:27.986Z,96553.82
2019-06-08T16:47:58.522Z,96574.38
2019-06-08T16:50:48.812Z,96580.66
2019-06-08T16:53:40.032Z,96587.39
2019-06-08T16:56:23.703Z,96583.37
2019-06-08T16:59:13.991Z,96588.56
2019-06-08T17:01:57.377Z,96597.11
2019-06-08T17:04:47.694Z,96575.65
2019-06-08T17:07:32.162Z,96590.00
2019-06-08T17:10:22.519Z,96592.98
2019-06-08T17:13:05.359Z,96594.47
2019-06-08T17:15:55.681Z,96590.46
2019-06-08T17:18:38.832Z,96590.31
2019-06-08T17:21:48.461Z,96591.00
2019-06-08T17:24:32.525Z,96590.08
2019-06-08T17:27:26.773Z,96584.02
2019-06-08T17:30:08.826Z,96587.72
2019-06-08T17:32:59.318Z,96589.97
2019-06-08T17:35:42.563Z,96586.44
2019-06-08T17:38:34.055Z,96579.07
2019-06-08T17:41:17.942Z,96579.55
2019-06-08T17:44:08.165Z,96574.27
2019-06-08T17:46:52.583Z,96583.23
2019-06-08T17:49:43.379Z,96584.13
2019-06-08T17:52:28.123Z,96581.92
2019-06-08T17:55:18.641Z,96581.28
2019-06-08T18:03:58.055Z,96579.08
2019-06-08T18:06:43.409Z,96573.95
2019-06-08T18:09:34.292Z,96583.28
2019-06-08T18:12:26.996Z,96565.60
2019-06-08T18:15:09.772Z,96581.70
2019-06-08T18:17:59.690Z,96584.06
2019-06-08T18:20:52.053Z,96581.39
2019-06-08T18:23:34.447Z,96588.27
2019-06-08T18:26:24.758Z,96587.11
2019-06-08T18:29:08.065Z,96590.01
2019-06-08T18:31:58.790Z,96583.13
2019-06-08T18:34:49.109Z,96582.62
2019-06-08T18:40:37.915Z,96557.24
2019-06-08T18:43:29.060Z,96588.41
2019-06-08T18:46:11.223Z,96589.91
2019-06-08T18:49:01.776Z,96585.52
2019-06-08T18:51:46.245Z,96583.76
2019-06-08T18:54:38.470Z,96594.92
2019-06-08T18:57:21.216Z,96600.64
2019-06-08T19:00:11.843Z,96601.45
2019-06-08T19:02:57.790Z,96601.05
2019-06-08T19:05:49.868Z,96604.22
2019-06-08T19:08:31.036Z,96600.41
2019-06-08T19:11:20.782Z,96608.11
2019-06-08T19:14:03.152Z,96586.17
2019-06-08T19:16:54.834Z,96579.20
2019-06-08T19:19:44.350Z,96604.48
2019-06-08T19:22:30.447Z,96599.85
2019-06-08T19:25:12.960Z,96590.66
2019-06-08T19:28:02.694Z,96599.33
2019-06-08T19:30:47.640Z,96593.28
2019-06-08T19:33:37.455Z,96603.55
2019-06-08T19:36:20.456Z,96608.41
2019-06-08T19:39:10.181Z,96605.02
2019-06-08T19:41:52.469Z,96614.61
2019-06-08T19:47:44.977Z,96622.11
2019-06-08T19:50:34.699Z,96624.09
2019-06-08T19:53:18.295Z,96624.81
2019-06-08T19:59:05.128Z,96626.38
2019-06-08T20:01:56.507Z,96634.67
2019-06-08T20:04:40.653Z,96638.89
2019-06-08T20:07:22.983Z,96627.09
2019-06-08T20:10:12.961Z,96636.05
2019-06-08T20:13:03.328Z,96635.58
2019-06-08T20:16:12.717Z,96633.14
2019-06-08T20:19:03.085Z,96624.69
2019-06-08T20:22:00.316Z,96634.96
2019-06-08T20:24:55.300Z,96637.20
2019-06-08T20:27:37.114Z,96615.92
2019-06-08T20:33:30.058Z,96647.27
2019-06-08T20:36:13.151Z,96629.22
2019-06-08T20:39:03.490Z,96646.92
2019-06-08T20:41:48.491Z,96647.11
2019-06-08T20:44:38.546Z,96654.34
2019-06-08T20:47:23.321Z,96632.82
2019-06-08T20:53:08.632Z,96647.76
2019-06-08T20:55:59.021Z,96640.83
2019-06-08T20:58:43.247Z,96643.69
2019-06-08T21:01:33.171Z,96632.87
2019-06-08T21:04:23.023Z,96627.14
2019-06-08T21:07:17.383Z,96643.17
2019-06-08T21:09:59.497Z,96641.70
2019-06-08T21:12:51.382Z,96648.50
2019-06-08T21:15:34.203Z,96651.01
2019-06-08T21:18:04.867Z,96653.00
2019-06-08T21:20:57.451Z,96643.74
2019-06-08T21:23:39.685Z,96646.11
2019-06-08T21:26:29.551Z,96644.84
2019-06-08T21:29:19.307Z,96643.80
2019-06-08T21:32:09.163Z,96642.41
2019-06-08T21:35:00.387Z,96646.98
2019-06-08T21:37:44.821Z,96627.40
2019-06-08T21:40:37.476Z,96648.05
2019-06-08T21:43:19.691Z,96643.42
2019-06-08T21:46:10.041Z,96646.15
2019-06-08T21:49:00.584Z,96653.20
2019-06-08T21:51:52.930Z,96655.72
2019-06-08T21:54:34.775Z,96656.19
2019-06-08T21:57:24.552Z,96631.84
2019-06-08T22:00:38.874Z,96658.53
2019-06-08T22:03:10.962Z,96655.74
2019-06-08T22:06:00.668Z,96651.02
2019-06-08T22:11:37.577Z,96664.40
2019-06-08T22:14:39.546Z,96668.20
2019-06-08T22:17:10.342Z,96667.63
2019-06-08T22:20:19.166Z,96664.48
2019-06-08T22:23:01.413Z,96661.09
2019-06-08T22:25:52.446Z,96657.67
2019-06-08T22:28:34.971Z,96653.20
2019-06-08T22:34:17.460Z,96650.17
2019-06-08T22:37:08.516Z,96650.64
2019-06-08T22:42:47.924Z,96653.81
2019-06-08T22:45:37.541Z,96657.39
2019-06-08T22:48:20.629Z,96653.04
2019-06-08T22:54:13.018Z,96649.13
2019-06-08T22:56:55.365Z,96655.11
2019-06-08T22:59:45.073Z,96641.86
2019-06-08T23:02:27.919Z,96658.05
2019-06-08T23:05:18.539Z,96655.55
2019-06-08T23:08:04.589Z,96645.25
2019-06-08T23:10:54.223Z,96635.44
2019-06-08T23:13:37.855Z,96639.13
2019-06-08T23:16:27.588Z,96649.16
2019-06-08T23:19:10.405Z,96648.81
2019-06-08T23:22:01.314Z,96646.96
2019-06-08T23:24:45.034Z,96641.52
2019-06-08T23:27:34.739Z,96651.56
2019-06-08T23:30:18.498Z,96652.72
2019-06-08T23:33:11.500Z,96655.57
2019-06-08T23:36:30.797Z,96649.70
2019-06-08T23:38:44.005Z,96631.31
2019-06-08T23:41:27.275Z,96654.44
2019-06-08T23:44:17.637Z,96652.03
2019-06-08T23:47:02.939Z,96654.71
2019-06-08T23:49:53.803Z,96630.14
2019-06-08T23:52:38.187Z,96640.92
2019-06-08T23:55:28.117Z,96639.84
2019-06-08T23:57:59.939Z,96656.50
